sensor_id;sensor_type;location;lat;lon;timestamp;temperature;humidity
78448;SHT31;67742;51.972;5.682;2023-07-29T00:01:06;21.6;67.6
78448;SHT31;67742;51.972;5.682;2023-07-29T00:03:34;21.6;67.5
78448;SHT31;67742;51.972;5.682;2023-07-29T00:06:02;21.5;67.4
78448;SHT31;67742;51.972;5.682;2023-07-29T00:08:31;21.5;67.7
78448;SHT31;67742;51.972;5.682;2023-07-29T00:11:00;21.5;67.6
78448;SHT31;67742;51.972;5.682;2023-07-29T00:13:30;21.5;67.7
78448;SHT31;67742;51.972;5.682;2023-07-29T00:15:59;21.5;67.6
78448;SHT31;67742;51.972;5.682;2023-07-29T00:18:27;21.4;67.7
78448;SHT31;67742;51.972;5.682;2023-07-29T00:20:56;21.4;67.5
78448;SHT31;67742;51.972;5.682;2023-07-29T00:23:24;21.4;67.5
78448;SHT31;67742;51.972;5.682;2023-07-29T00:25:53;21.4;67.6
78448;SHT31;67742;51.972;5.682;2023-07-29T00:28:21;21.3;67.4
78448;SHT31;67742;51.972;5.682;2023-07-29T00:30:50;21.3;67.5
78448;SHT31;67742;51.972;5.682;2023-07-29T00:33:20;21.3;67.3
78448;SHT31;67742;51.972;5.682;2023-07-29T00:35:49;21.3;67.2
78448;SHT31;67742;51.972;5.682;2023-07-29T00:38:17;21.2;67.4
78448;SHT31;67742;51.972;5.682;2023-07-29T00:40:46;21.2;67.2
78448;SHT31;67742;51.972;5.682;2023-07-29T00:43:15;21.2;67.4
78448;SHT31;67742;51.972;5.682;2023-07-29T00:45:44;21.2;67.4
78448;SHT31;67742;51.972;5.682;2023-07-29T00:48:13;21.1;67.5
78448;SHT31;67742;51.972;5.682;2023-07-29T00:50:42;21.1;67.5
78448;SHT31;67742;51.972;5.682;2023-07-29T00:53:11;21.1;67.6
78448;SHT31;67742;51.972;5.682;2023-07-29T00:55:40;21.1;67.8
78448;SHT31;67742;51.972;5.682;2023-07-29T00:58:12;21.1;67.9
78448;SHT31;67742;51.972;5.682;2023-07-29T01:00:40;21.0;68.0
78448;SHT31;67742;51.972;5.682;2023-07-29T01:03:11;21.0;67.7
78448;SHT31;67742;51.972;5.682;2023-07-29T01:05:56;21.0;67.9
78448;SHT31;67742;51.972;5.682;2023-07-29T01:08:31;21.0;68.0
78448;SHT31;67742;51.972;5.682;2023-07-29T01:11:08;21.0;68.4
78448;SHT31;67742;51.972;5.682;2023-07-29T01:13:48;21.0;68.0
78448;SHT31;67742;51.972;5.682;2023-07-29T01:16:26;21.0;68.1
78448;SHT31;67742;51.972;5.682;2023-07-29T01:19:03;20.9;68.1
78448;SHT31;67742;51.972;5.682;2023-07-29T01:21:34;20.9;68.1
78448;SHT31;67742;51.972;5.682;2023-07-29T01:24:04;20.9;68.2
78448;SHT31;67742;51.972;5.682;2023-07-29T01:26:32;20.9;68.3
78448;SHT31;67742;51.972;5.682;2023-07-29T01:29:01;20.9;68.9
78448;SHT31;67742;51.972;5.682;2023-07-29T01:31:34;20.8;69.1
78448;SHT31;67742;51.972;5.682;2023-07-29T01:34:13;20.8;69.3
78448;SHT31;67742;51.972;5.682;2023-07-29T01:36:43;20.8;69.4
78448;SHT31;67742;51.972;5.682;2023-07-29T01:39:14;20.8;69.7
78448;SHT31;67742;51.972;5.682;2023-07-29T01:41:46;20.8;70.3
78448;SHT31;67742;51.972;5.682;2023-07-29T01:44:17;20.8;71.0
78448;SHT31;67742;51.972;5.682;2023-07-29T01:46:47;20.8;70.2
78448;SHT31;67742;51.972;5.682;2023-07-29T01:49:16;20.9;71.0
78448;SHT31;67742;51.972;5.682;2023-07-29T01:51:44;20.9;70.2
78448;SHT31;67742;51.972;5.682;2023-07-29T01:54:13;20.9;70.8
78448;SHT31;67742;51.972;5.682;2023-07-29T01:56:41;20.9;70.8
78448;SHT31;67742;51.972;5.682;2023-07-29T01:59:10;20.9;70.8
78448;SHT31;67742;51.972;5.682;2023-07-29T02:01:40;20.9;70.8
78448;SHT31;67742;51.972;5.682;2023-07-29T02:04:09;20.9;70.9
78448;SHT31;67742;51.972;5.682;2023-07-29T02:06:37;20.9;70.3
78448;SHT31;67742;51.972;5.682;2023-07-29T02:09:08;20.9;70.6
78448;SHT31;67742;51.972;5.682;2023-07-29T02:11:36;20.9;71.0
78448;SHT31;67742;51.972;5.682;2023-07-29T02:14:07;20.9;70.8
78448;SHT31;67742;51.972;5.682;2023-07-29T02:16:35;21.0;71.0
78448;SHT31;67742;51.972;5.682;2023-07-29T02:19:05;21.0;71.1
78448;SHT31;67742;51.972;5.682;2023-07-29T02:21:33;21.0;71.0
78448;SHT31;67742;51.972;5.682;2023-07-29T02:24:02;21.0;71.7
78448;SHT31;67742;51.972;5.682;2023-07-29T02:26:31;21.0;71.1
78448;SHT31;67742;51.972;5.682;2023-07-29T02:29:00;21.0;70.9
78448;SHT31;67742;51.972;5.682;2023-07-29T02:31:29;21.0;71.8
78448;SHT31;67742;51.972;5.682;2023-07-29T02:33:57;21.0;71.8
78448;SHT31;67742;51.972;5.682;2023-07-29T02:36:26;21.0;71.6
78448;SHT31;67742;51.972;5.682;2023-07-29T02:38:56;21.0;71.0
78448;SHT31;67742;51.972;5.682;2023-07-29T02:41:27;21.0;71.7
78448;SHT31;67742;51.972;5.682;2023-07-29T02:43:55;21.0;71.2
78448;SHT31;67742;51.972;5.682;2023-07-29T02:46:25;21.0;71.0
78448;SHT31;67742;51.972;5.682;2023-07-29T02:48:56;21.0;71.1
78448;SHT31;67742;51.972;5.682;2023-07-29T02:51:26;21.0;70.9
78448;SHT31;67742;51.972;5.682;2023-07-29T02:53:55;21.0;70.8
78448;SHT31;67742;51.972;5.682;2023-07-29T02:56:24;21.0;70.3
78448;SHT31;67742;51.972;5.682;2023-07-29T02:58:54;21.0;70.1
78448;SHT31;67742;51.972;5.682;2023-07-29T03:01:23;21.0;70.2
78448;SHT31;67742;51.972;5.682;2023-07-29T03:03:53;21.0;69.9
78448;SHT31;67742;51.972;5.682;2023-07-29T03:06:21;21.0;69.5
78448;SHT31;67742;51.972;5.682;2023-07-29T03:08:50;21.0;69.5
78448;SHT31;67742;51.972;5.682;2023-07-29T03:11:21;21.0;69.4
78448;SHT31;67742;51.972;5.682;2023-07-29T03:13:51;21.0;69.5
78448;SHT31;67742;51.972;5.682;2023-07-29T03:16:20;21.0;69.3
78448;SHT31;67742;51.972;5.682;2023-07-29T03:18:49;21.0;69.7
78448;SHT31;67742;51.972;5.682;2023-07-29T03:21:17;21.0;69.7
78448;SHT31;67742;51.972;5.682;2023-07-29T03:23:46;21.0;69.7
78448;SHT31;67742;51.972;5.682;2023-07-29T03:26:15;21.0;69.5
78448;SHT31;67742;51.972;5.682;2023-07-29T03:28:43;21.0;69.5
78448;SHT31;67742;51.972;5.682;2023-07-29T03:31:12;21.0;69.5
78448;SHT31;67742;51.972;5.682;2023-07-29T03:33:40;21.0;69.2
78448;SHT31;67742;51.972;5.682;2023-07-29T03:36:09;20.9;69.1
78448;SHT31;67742;51.972;5.682;2023-07-29T03:38:37;20.9;69.3
78448;SHT31;67742;51.972;5.682;2023-07-29T03:41:07;20.9;69.1
78448;SHT31;67742;51.972;5.682;2023-07-29T03:43:35;20.9;69.3
78448;SHT31;67742;51.972;5.682;2023-07-29T03:46:04;20.9;69.2
78448;SHT31;67742;51.972;5.682;2023-07-29T03:48:33;20.9;69.2
78448;SHT31;67742;51.972;5.682;2023-07-29T03:51:05;20.9;69.0
78448;SHT31;67742;51.972;5.682;2023-07-29T03:53:33;20.9;68.7
78448;SHT31;67742;51.972;5.682;2023-07-29T03:56:02;20.9;68.9
78448;SHT31;67742;51.972;5.682;2023-07-29T03:58:32;20.9;68.8
78448;SHT31;67742;51.972;5.682;2023-07-29T04:01:01;20.9;68.3
78448;SHT31;67742;51.972;5.682;2023-07-29T04:03:31;20.9;68.6
78448;SHT31;67742;51.972;5.682;2023-07-29T04:06:00;20.9;68.1
78448;SHT31;67742;51.972;5.682;2023-07-29T04:08:29;20.8;68.1
78448;SHT31;67742;51.972;5.682;2023-07-29T04:10:58;20.8;67.7
78448;SHT31;67742;51.972;5.682;2023-07-29T04:13:26;20.8;67.3
78448;SHT31;67742;51.972;5.682;2023-07-29T04:15:57;20.8;67.0
78448;SHT31;67742;51.972;5.682;2023-07-29T04:18:26;20.7;66.4
78448;SHT31;67742;51.972;5.682;2023-07-29T04:20:54;20.7;66.9
78448;SHT31;67742;51.972;5.682;2023-07-29T04:23:23;20.7;67.4
78448;SHT31;67742;51.972;5.682;2023-07-29T04:25:52;20.7;67.2
78448;SHT31;67742;51.972;5.682;2023-07-29T04:28:20;20.6;67.2
78448;SHT31;67742;51.972;5.682;2023-07-29T04:30:48;20.6;67.4
78448;SHT31;67742;51.972;5.682;2023-07-29T04:33:17;20.6;67.3
78448;SHT31;67742;51.972;5.682;2023-07-29T04:35:45;20.6;67.3
78448;SHT31;67742;51.972;5.682;2023-07-29T04:38:14;20.6;67.5
78448;SHT31;67742;51.972;5.682;2023-07-29T04:40:42;20.6;67.6
78448;SHT31;67742;51.972;5.682;2023-07-29T04:43:11;20.6;67.5
78448;SHT31;67742;51.972;5.682;2023-07-29T04:45:44;20.6;67.4
78448;SHT31;67742;51.972;5.682;2023-07-29T04:48:12;20.5;67.3
78448;SHT31;67742;51.972;5.682;2023-07-29T04:50:40;20.5;67.4
78448;SHT31;67742;51.972;5.682;2023-07-29T04:53:10;20.5;67.2
78448;SHT31;67742;51.972;5.682;2023-07-29T04:55:43;20.5;67.4
78448;SHT31;67742;51.972;5.682;2023-07-29T04:58:12;20.5;67.7
78448;SHT31;67742;51.972;5.682;2023-07-29T05:00:40;20.5;67.6
78448;SHT31;67742;51.972;5.682;2023-07-29T05:03:09;20.5;68.1
78448;SHT31;67742;51.972;5.682;2023-07-29T05:05:38;20.5;67.9
78448;SHT31;67742;51.972;5.682;2023-07-29T05:08:06;20.5;68.1
78448;SHT31;67742;51.972;5.682;2023-07-29T05:10:36;20.5;67.8
78448;SHT31;67742;51.972;5.682;2023-07-29T05:13:04;20.4;67.6
78448;SHT31;67742;51.972;5.682;2023-07-29T05:15:33;20.4;67.3
78448;SHT31;67742;51.972;5.682;2023-07-29T05:18:01;20.4;67.2
78448;SHT31;67742;51.972;5.682;2023-07-29T05:20:30;20.4;67.2
78448;SHT31;67742;51.972;5.682;2023-07-29T05:22:58;20.4;66.8
78448;SHT31;67742;51.972;5.682;2023-07-29T05:25:27;20.4;67.1
78448;SHT31;67742;51.972;5.682;2023-07-29T05:27:56;20.3;67.2
78448;SHT31;67742;51.972;5.682;2023-07-29T05:30:24;20.3;66.9
78448;SHT31;67742;51.972;5.682;2023-07-29T05:32:53;20.3;67.0
78448;SHT31;67742;51.972;5.682;2023-07-29T05:35:21;20.3;67.0
78448;SHT31;67742;51.972;5.682;2023-07-29T05:37:50;20.3;67.1
78448;SHT31;67742;51.972;5.682;2023-07-29T05:40:19;20.3;67.1
78448;SHT31;67742;51.972;5.682;2023-07-29T05:42:49;20.3;66.8
78448;SHT31;67742;51.972;5.682;2023-07-29T05:45:42;20.3;67.1
78448;SHT31;67742;51.972;5.682;2023-07-29T05:48:11;20.2;67.0
78448;SHT31;67742;51.972;5.682;2023-07-29T05:50:39;20.2;67.2
78448;SHT31;67742;51.972;5.682;2023-07-29T05:53:08;20.2;67.1
78448;SHT31;67742;51.972;5.682;2023-07-29T05:55:37;20.2;67.2
78448;SHT31;67742;51.972;5.682;2023-07-29T05:58:07;20.2;67.4
78448;SHT31;67742;51.972;5.682;2023-07-29T06:00:36;20.2;67.3
78448;SHT31;67742;51.972;5.682;2023-07-29T06:03:05;20.2;67.6
78448;SHT31;67742;51.972;5.682;2023-07-29T06:05:34;20.2;67.7
78448;SHT31;67742;51.972;5.682;2023-07-29T06:08:03;20.2;67.8
78448;SHT31;67742;51.972;5.682;2023-07-29T06:10:32;20.2;67.9
78448;SHT31;67742;51.972;5.682;2023-07-29T06:13:02;20.2;67.7
78448;SHT31;67742;51.972;5.682;2023-07-29T06:15:30;20.3;67.7
78448;SHT31;67742;51.972;5.682;2023-07-29T06:18:01;20.3;68.0
78448;SHT31;67742;51.972;5.682;2023-07-29T06:20:30;20.3;67.9
78448;SHT31;67742;51.972;5.682;2023-07-29T06:22:58;20.3;68.2
78448;SHT31;67742;51.972;5.682;2023-07-29T06:25:28;20.3;68.7
78448;SHT31;67742;51.972;5.682;2023-07-29T06:27:56;20.4;68.3
78448;SHT31;67742;51.972;5.682;2023-07-29T06:30:25;20.4;67.7
78448;SHT31;67742;51.972;5.682;2023-07-29T06:32:53;20.4;68.2
78448;SHT31;67742;51.972;5.682;2023-07-29T06:35:25;20.5;68.2
78448;SHT31;67742;51.972;5.682;2023-07-29T06:37:53;20.5;68.4
78448;SHT31;67742;51.972;5.682;2023-07-29T06:40:24;20.5;68.2
78448;SHT31;67742;51.972;5.682;2023-07-29T06:42:53;20.5;68.2
78448;SHT31;67742;51.972;5.682;2023-07-29T06:45:21;20.6;68.2
78448;SHT31;67742;51.972;5.682;2023-07-29T06:47:50;20.6;67.5
78448;SHT31;67742;51.972;5.682;2023-07-29T06:50:18;20.6;68.0
78448;SHT31;67742;51.972;5.682;2023-07-29T06:52:47;20.7;68.2
78448;SHT31;67742;51.972;5.682;2023-07-29T06:55:16;20.7;68.2
78448;SHT31;67742;51.972;5.682;2023-07-29T06:57:44;20.7;68.1
78448;SHT31;67742;51.972;5.682;2023-07-29T07:00:13;20.7;67.7
78448;SHT31;67742;51.972;5.682;2023-07-29T07:02:43;20.8;67.6
78448;SHT31;67742;51.972;5.682;2023-07-29T07:05:11;20.8;67.7
78448;SHT31;67742;51.972;5.682;2023-07-29T07:07:40;20.8;68.0
78448;SHT31;67742;51.972;5.682;2023-07-29T07:10:09;20.8;67.9
78448;SHT31;67742;51.972;5.682;2023-07-29T07:12:38;20.9;67.7
78448;SHT31;67742;51.972;5.682;2023-07-29T07:15:07;20.9;68.0
78448;SHT31;67742;51.972;5.682;2023-07-29T07:17:36;20.9;67.9
78448;SHT31;67742;51.972;5.682;2023-07-29T07:20:06;21.0;68.3
78448;SHT31;67742;51.972;5.682;2023-07-29T07:22:35;21.0;67.9
78448;SHT31;67742;51.972;5.682;2023-07-29T07:25:04;21.1;67.9
78448;SHT31;67742;51.972;5.682;2023-07-29T07:27:33;21.1;67.1
78448;SHT31;67742;51.972;5.682;2023-07-29T07:30:02;21.1;67.4
78448;SHT31;67742;51.972;5.682;2023-07-29T07:32:31;21.2;66.9
78448;SHT31;67742;51.972;5.682;2023-07-29T07:34:59;21.2;67.4
78448;SHT31;67742;51.972;5.682;2023-07-29T07:37:28;21.2;67.1
78448;SHT31;67742;51.972;5.682;2023-07-29T07:39:56;21.3;66.9
78448;SHT31;67742;51.972;5.682;2023-07-29T07:42:25;21.3;66.7
78448;SHT31;67742;51.972;5.682;2023-07-29T07:44:53;21.3;66.2
78448;SHT31;67742;51.972;5.682;2023-07-29T07:47:22;21.3;66.7
78448;SHT31;67742;51.972;5.682;2023-07-29T07:49:51;21.3;66.8
78448;SHT31;67742;51.972;5.682;2023-07-29T07:52:19;21.4;67.2
78448;SHT31;67742;51.972;5.682;2023-07-29T07:54:52;21.4;66.7
78448;SHT31;67742;51.972;5.682;2023-07-29T07:57:24;21.4;67.1
78448;SHT31;67742;51.972;5.682;2023-07-29T07:59:54;21.5;67.6
78448;SHT31;67742;51.972;5.682;2023-07-29T08:02:24;21.5;66.3
78448;SHT31;67742;51.972;5.682;2023-07-29T08:04:53;21.5;66.6
78448;SHT31;67742;51.972;5.682;2023-07-29T08:07:21;21.6;66.4
78448;SHT31;67742;51.972;5.682;2023-07-29T08:09:50;21.6;66.1
78448;SHT31;67742;51.972;5.682;2023-07-29T08:12:19;21.6;66.9
78448;SHT31;67742;51.972;5.682;2023-07-29T08:14:47;21.7;66.2
78448;SHT31;67742;51.972;5.682;2023-07-29T08:17:16;21.7;66.3
78448;SHT31;67742;51.972;5.682;2023-07-29T08:19:44;21.7;66.2
78448;SHT31;67742;51.972;5.682;2023-07-29T08:22:13;21.8;66.2
78448;SHT31;67742;51.972;5.682;2023-07-29T08:24:43;21.8;65.6
78448;SHT31;67742;51.972;5.682;2023-07-29T08:27:12;21.8;65.9
78448;SHT31;67742;51.972;5.682;2023-07-29T08:29:42;21.9;65.9
78448;SHT31;67742;51.972;5.682;2023-07-29T08:32:11;21.9;65.7
78448;SHT31;67742;51.972;5.682;2023-07-29T08:34:39;21.9;65.8
78448;SHT31;67742;51.972;5.682;2023-07-29T08:37:08;21.9;65.5
78448;SHT31;67742;51.972;5.682;2023-07-29T08:39:37;22.0;65.8
78448;SHT31;67742;51.972;5.682;2023-07-29T08:42:08;22.0;66.0
78448;SHT31;67742;51.972;5.682;2023-07-29T08:44:41;22.0;65.6
78448;SHT31;67742;51.972;5.682;2023-07-29T08:47:10;22.1;64.9
78448;SHT31;67742;51.972;5.682;2023-07-29T08:49:40;22.1;64.1
78448;SHT31;67742;51.972;5.682;2023-07-29T08:52:09;22.1;64.6
78448;SHT31;67742;51.972;5.682;2023-07-29T08:54:40;22.1;64.4
78448;SHT31;67742;51.972;5.682;2023-07-29T08:57:14;22.2;64.1
78448;SHT31;67742;51.972;5.682;2023-07-29T08:59:45;22.2;63.9
78448;SHT31;67742;51.972;5.682;2023-07-29T09:02:14;22.2;63.0
78448;SHT31;67742;51.972;5.682;2023-07-29T09:04:43;22.2;63.3
78448;SHT31;67742;51.972;5.682;2023-07-29T09:07:12;22.2;63.0
78448;SHT31;67742;51.972;5.682;2023-07-29T09:09:41;22.3;62.7
78448;SHT31;67742;51.972;5.682;2023-07-29T09:12:10;22.3;62.9
78448;SHT31;67742;51.972;5.682;2023-07-29T09:14:39;22.3;63.4
78448;SHT31;67742;51.972;5.682;2023-07-29T09:17:10;22.3;63.7
78448;SHT31;67742;51.972;5.682;2023-07-29T09:19:39;22.3;63.3
78448;SHT31;67742;51.972;5.682;2023-07-29T09:22:18;22.4;63.2
78448;SHT31;67742;51.972;5.682;2023-07-29T09:24:48;22.4;62.6
78448;SHT31;67742;51.972;5.682;2023-07-29T09:27:26;22.4;62.7
78448;SHT31;67742;51.972;5.682;2023-07-29T09:29:58;22.5;62.2
78448;SHT31;67742;51.972;5.682;2023-07-29T09:32:26;22.5;61.7
78448;SHT31;67742;51.972;5.682;2023-07-29T09:34:55;22.5;60.8
78448;SHT31;67742;51.972;5.682;2023-07-29T09:37:24;22.5;60.9
78448;SHT31;67742;51.972;5.682;2023-07-29T09:39:52;22.5;61.2
78448;SHT31;67742;51.972;5.682;2023-07-29T09:42:22;22.5;62.2
78448;SHT31;67742;51.972;5.682;2023-07-29T09:44:51;22.6;61.5
78448;SHT31;67742;51.972;5.682;2023-07-29T09:47:21;22.6;61.1
78448;SHT31;67742;51.972;5.682;2023-07-29T09:49:52;22.7;61.2
78448;SHT31;67742;51.972;5.682;2023-07-29T09:52:22;22.7;60.9
78448;SHT31;67742;51.972;5.682;2023-07-29T09:54:51;22.8;61.2
78448;SHT31;67742;51.972;5.682;2023-07-29T09:57:21;22.9;60.7
78448;SHT31;67742;51.972;5.682;2023-07-29T09:59:56;22.9;61.8
78448;SHT31;67742;51.972;5.682;2023-07-29T10:02:28;23.0;60.7
78448;SHT31;67742;51.972;5.682;2023-07-29T10:04:58;23.1;60.4
78448;SHT31;67742;51.972;5.682;2023-07-29T10:07:28;23.2;61.0
78448;SHT31;67742;51.972;5.682;2023-07-29T10:09:57;23.2;60.1
78448;SHT31;67742;51.972;5.682;2023-07-29T10:12:29;23.3;58.5
78448;SHT31;67742;51.972;5.682;2023-07-29T10:15:00;23.4;58.2
78448;SHT31;67742;51.972;5.682;2023-07-29T10:17:34;23.4;58.4
78448;SHT31;67742;51.972;5.682;2023-07-29T10:20:07;23.5;58.9
78448;SHT31;67742;51.972;5.682;2023-07-29T10:22:37;23.5;59.7
78448;SHT31;67742;51.972;5.682;2023-07-29T10:25:09;23.6;58.2
78448;SHT31;67742;51.972;5.682;2023-07-29T10:27:44;23.7;58.0
78448;SHT31;67742;51.972;5.682;2023-07-29T10:30:15;23.8;57.6
78448;SHT31;67742;51.972;5.682;2023-07-29T10:32:45;23.8;58.3
78448;SHT31;67742;51.972;5.682;2023-07-29T10:35:15;23.9;59.3
78448;SHT31;67742;51.972;5.682;2023-07-29T10:37:45;24.0;57.4
78448;SHT31;67742;51.972;5.682;2023-07-29T10:40:17;24.0;57.0
78448;SHT31;67742;51.972;5.682;2023-07-29T10:43:03;24.0;57.7
78448;SHT31;67742;51.972;5.682;2023-07-29T10:45:39;24.1;58.5
78448;SHT31;67742;51.972;5.682;2023-07-29T10:48:10;24.1;59.1
78448;SHT31;67742;51.972;5.682;2023-07-29T10:50:41;24.1;58.1
78448;SHT31;67742;51.972;5.682;2023-07-29T10:53:09;24.2;57.6
78448;SHT31;67742;51.972;5.682;2023-07-29T10:55:38;24.2;57.6
78448;SHT31;67742;51.972;5.682;2023-07-29T10:58:12;24.3;57.1
78448;SHT31;67742;51.972;5.682;2023-07-29T11:00:45;24.3;56.3
78448;SHT31;67742;51.972;5.682;2023-07-29T11:03:14;24.3;56.7
78448;SHT31;67742;51.972;5.682;2023-07-29T11:05:45;24.3;56.2
78448;SHT31;67742;51.972;5.682;2023-07-29T11:08:27;24.3;55.9
78448;SHT31;67742;51.972;5.682;2023-07-29T11:11:02;24.3;56.2
78448;SHT31;67742;51.972;5.682;2023-07-29T11:13:33;24.3;56.2
78448;SHT31;67742;51.972;5.682;2023-07-29T11:16:03;24.3;56.5
78448;SHT31;67742;51.972;5.682;2023-07-29T11:18:34;24.2;56.2
78448;SHT31;67742;51.972;5.682;2023-07-29T11:21:04;24.1;56.0
78448;SHT31;67742;51.972;5.682;2023-07-29T11:23:35;24.1;56.6
78448;SHT31;67742;51.972;5.682;2023-07-29T11:26:05;24.0;57.0
78448;SHT31;67742;51.972;5.682;2023-07-29T11:28:38;23.9;56.8
78448;SHT31;67742;51.972;5.682;2023-07-29T11:31:07;23.8;57.6
78448;SHT31;67742;51.972;5.682;2023-07-29T11:33:39;23.7;59.0
78448;SHT31;67742;51.972;5.682;2023-07-29T11:36:20;23.6;60.1
78448;SHT31;67742;51.972;5.682;2023-07-29T11:38:50;23.5;61.4
78448;SHT31;67742;51.972;5.682;2023-07-29T11:41:21;23.5;61.1
78448;SHT31;67742;51.972;5.682;2023-07-29T11:43:50;23.4;61.5
78448;SHT31;67742;51.972;5.682;2023-07-29T11:46:22;23.3;61.9
78448;SHT31;67742;51.972;5.682;2023-07-29T11:48:55;23.2;62.2
78448;SHT31;67742;51.972;5.682;2023-07-29T11:51:25;23.1;63.2
78448;SHT31;67742;51.972;5.682;2023-07-29T11:53:55;23.1;63.5
78448;SHT31;67742;51.972;5.682;2023-07-29T11:56:24;23.1;63.7
78448;SHT31;67742;51.972;5.682;2023-07-29T11:58:53;23.0;63.4
78448;SHT31;67742;51.972;5.682;2023-07-29T12:01:22;23.0;63.8
78448;SHT31;67742;51.972;5.682;2023-07-29T12:03:51;23.0;63.8
78448;SHT31;67742;51.972;5.682;2023-07-29T12:06:21;23.0;64.2
78448;SHT31;67742;51.972;5.682;2023-07-29T12:08:51;23.0;64.2
78448;SHT31;67742;51.972;5.682;2023-07-29T12:11:20;23.0;64.8
78448;SHT31;67742;51.972;5.682;2023-07-29T12:13:48;23.0;65.6
78448;SHT31;67742;51.972;5.682;2023-07-29T12:16:18;22.9;65.9
78448;SHT31;67742;51.972;5.682;2023-07-29T12:18:46;22.9;65.8
78448;SHT31;67742;51.972;5.682;2023-07-29T12:21:16;22.9;64.8
78448;SHT31;67742;51.972;5.682;2023-07-29T12:23:45;22.9;65.0
78448;SHT31;67742;51.972;5.682;2023-07-29T12:26:14;22.8;66.0
78448;SHT31;67742;51.972;5.682;2023-07-29T12:28:47;22.8;65.9
78448;SHT31;67742;51.972;5.682;2023-07-29T12:31:17;22.7;67.5
78448;SHT31;67742;51.972;5.682;2023-07-29T12:33:45;22.7;67.4
78448;SHT31;67742;51.972;5.682;2023-07-29T12:36:14;22.7;67.5
78448;SHT31;67742;51.972;5.682;2023-07-29T12:38:45;22.7;66.4
78448;SHT31;67742;51.972;5.682;2023-07-29T12:41:13;22.7;68.2
78448;SHT31;67742;51.972;5.682;2023-07-29T12:43:42;22.8;68.3
78448;SHT31;67742;51.972;5.682;2023-07-29T12:46:10;22.8;68.5
78448;SHT31;67742;51.972;5.682;2023-07-29T12:48:38;22.8;67.4
78448;SHT31;67742;51.972;5.682;2023-07-29T12:51:07;22.9;67.0
78448;SHT31;67742;51.972;5.682;2023-07-29T12:53:35;22.9;69.1
78448;SHT31;67742;51.972;5.682;2023-07-29T12:56:05;22.9;68.9
78448;SHT31;67742;51.972;5.682;2023-07-29T12:58:34;23.0;69.4
78448;SHT31;67742;51.972;5.682;2023-07-29T13:01:02;23.1;68.1
78448;SHT31;67742;51.972;5.682;2023-07-29T13:03:31;23.1;69.6
78448;SHT31;67742;51.972;5.682;2023-07-29T13:05:59;23.2;68.3
78448;SHT31;67742;51.972;5.682;2023-07-29T13:08:30;23.3;67.1
78448;SHT31;67742;51.972;5.682;2023-07-29T13:10:59;23.3;68.4
78448;SHT31;67742;51.972;5.682;2023-07-29T13:13:28;23.4;67.4
78448;SHT31;67742;51.972;5.682;2023-07-29T13:15:57;23.5;66.7
78448;SHT31;67742;51.972;5.682;2023-07-29T13:18:27;23.5;66.8
78448;SHT31;67742;51.972;5.682;2023-07-29T13:20:56;23.6;67.3
78448;SHT31;67742;51.972;5.682;2023-07-29T13:23:27;23.6;65.9
78448;SHT31;67742;51.972;5.682;2023-07-29T13:25:57;23.7;66.9
78448;SHT31;67742;51.972;5.682;2023-07-29T13:28:25;23.7;66.8
78448;SHT31;67742;51.972;5.682;2023-07-29T13:30:55;23.8;66.2
78448;SHT31;67742;51.972;5.682;2023-07-29T13:33:23;23.9;67.1
78448;SHT31;67742;51.972;5.682;2023-07-29T13:35:52;23.9;66.0
78448;SHT31;67742;51.972;5.682;2023-07-29T13:38:21;24.0;66.1
78448;SHT31;67742;51.972;5.682;2023-07-29T13:40:50;24.0;66.9
78448;SHT31;67742;51.972;5.682;2023-07-29T13:43:19;24.0;67.2
78448;SHT31;67742;51.972;5.682;2023-07-29T13:45:47;24.1;66.5
78448;SHT31;67742;51.972;5.682;2023-07-29T13:48:17;24.1;66.6
78448;SHT31;67742;51.972;5.682;2023-07-29T13:50:46;24.1;66.7
78448;SHT31;67742;51.972;5.682;2023-07-29T13:53:15;24.2;64.0
78448;SHT31;67742;51.972;5.682;2023-07-29T13:55:43;24.2;63.6
78448;SHT31;67742;51.972;5.682;2023-07-29T13:58:12;24.3;64.4
78448;SHT31;67742;51.972;5.682;2023-07-29T14:00:41;24.3;64.4
78448;SHT31;67742;51.972;5.682;2023-07-29T14:03:09;24.4;62.7
78448;SHT31;67742;51.972;5.682;2023-07-29T14:05:37;24.4;62.6
78448;SHT31;67742;51.972;5.682;2023-07-29T14:08:06;24.4;63.6
78448;SHT31;67742;51.972;5.682;2023-07-29T14:10:34;24.5;62.2
78448;SHT31;67742;51.972;5.682;2023-07-29T14:13:03;24.5;62.5
78448;SHT31;67742;51.972;5.682;2023-07-29T14:15:31;24.6;62.4
78448;SHT31;67742;51.972;5.682;2023-07-29T14:18:02;24.6;63.5
78448;SHT31;67742;51.972;5.682;2023-07-29T14:20:33;24.7;63.7
78448;SHT31;67742;51.972;5.682;2023-07-29T14:23:01;24.8;63.0
78448;SHT31;67742;51.972;5.682;2023-07-29T14:25:30;24.9;62.2
78448;SHT31;67742;51.972;5.682;2023-07-29T14:27:58;25.0;62.0
78448;SHT31;67742;51.972;5.682;2023-07-29T14:30:27;25.1;60.5
78448;SHT31;67742;51.972;5.682;2023-07-29T14:32:55;25.1;59.4
78448;SHT31;67742;51.972;5.682;2023-07-29T14:35:23;25.2;58.7
78448;SHT31;67742;51.972;5.682;2023-07-29T14:37:52;25.2;59.5
78448;SHT31;67742;51.972;5.682;2023-07-29T14:40:20;25.2;58.0
78448;SHT31;67742;51.972;5.682;2023-07-29T14:42:49;25.3;58.6
78448;SHT31;67742;51.972;5.682;2023-07-29T14:45:17;25.3;58.7
78448;SHT31;67742;51.972;5.682;2023-07-29T14:47:45;25.3;59.2
78448;SHT31;67742;51.972;5.682;2023-07-29T14:50:14;25.3;60.0
78448;SHT31;67742;51.972;5.682;2023-07-29T14:52:42;25.3;58.4
78448;SHT31;67742;51.972;5.682;2023-07-29T14:55:11;25.3;58.5
78448;SHT31;67742;51.972;5.682;2023-07-29T14:57:39;25.3;58.1
78448;SHT31;67742;51.972;5.682;2023-07-29T15:00:09;25.3;58.5
78448;SHT31;67742;51.972;5.682;2023-07-29T15:02:41;25.3;57.6
78448;SHT31;67742;51.972;5.682;2023-07-29T15:05:11;25.4;57.7
78448;SHT31;67742;51.972;5.682;2023-07-29T15:07:40;25.4;57.8
78448;SHT31;67742;51.972;5.682;2023-07-29T15:10:09;25.4;57.6
78448;SHT31;67742;51.972;5.682;2023-07-29T15:12:38;25.4;56.0
78448;SHT31;67742;51.972;5.682;2023-07-29T15:15:07;25.5;52.6
78448;SHT31;67742;51.972;5.682;2023-07-29T15:17:37;25.5;52.4
78448;SHT31;67742;51.972;5.682;2023-07-29T15:20:06;25.5;52.0
78448;SHT31;67742;51.972;5.682;2023-07-29T15:22:37;25.5;52.5
78448;SHT31;67742;51.972;5.682;2023-07-29T15:25:09;25.5;53.3
78448;SHT31;67742;51.972;5.682;2023-07-29T15:27:38;25.6;53.1
78448;SHT31;67742;51.972;5.682;2023-07-29T15:30:08;25.6;54.3
78448;SHT31;67742;51.972;5.682;2023-07-29T15:32:38;25.6;52.3
78448;SHT31;67742;51.972;5.682;2023-07-29T15:35:09;25.7;53.2
78448;SHT31;67742;51.972;5.682;2023-07-29T15:37:38;25.7;53.1
78448;SHT31;67742;51.972;5.682;2023-07-29T15:40:08;25.7;53.0
78448;SHT31;67742;51.972;5.682;2023-07-29T15:42:38;25.8;53.6
78448;SHT31;67742;51.972;5.682;2023-07-29T15:45:08;25.8;53.4
78448;SHT31;67742;51.972;5.682;2023-07-29T15:47:37;25.8;53.5
78448;SHT31;67742;51.972;5.682;2023-07-29T15:50:06;25.8;53.5
78448;SHT31;67742;51.972;5.682;2023-07-29T15:52:35;25.8;54.0
78448;SHT31;67742;51.972;5.682;2023-07-29T15:55:09;25.8;53.5
78448;SHT31;67742;51.972;5.682;2023-07-29T15:57:37;25.8;53.4
78448;SHT31;67742;51.972;5.682;2023-07-29T16:00:07;25.8;52.8
78448;SHT31;67742;51.972;5.682;2023-07-29T16:02:36;25.8;52.3
78448;SHT31;67742;51.972;5.682;2023-07-29T16:05:05;25.8;52.1
78448;SHT31;67742;51.972;5.682;2023-07-29T16:07:34;25.8;53.0
78448;SHT31;67742;51.972;5.682;2023-07-29T16:10:03;25.8;52.0
78448;SHT31;67742;51.972;5.682;2023-07-29T16:12:32;25.8;51.5
78448;SHT31;67742;51.972;5.682;2023-07-29T16:15:05;25.8;52.1
78448;SHT31;67742;51.972;5.682;2023-07-29T16:17:35;25.8;52.2